Time;durP1;ratioP1;P1;durP2;ratioP2;P2;SDS_P1;SDS_P2;PMS_P1;PMS_P2;Temp;Humidity;BMP_temperature;BMP_pressure;BME280_temperature;BME280_humidity;BME280_pressure;Samples;Min_cycle;Max_cycle;Signal;HPM_P1;HPM_P2
2020/12/15 00:02:04;;;;;;;;;;;;;;;;;;5034609;28;1279;-82
2020/12/15 00:04:29;;;;;;;;;;;;;;;;;;5034315;28;940;-82
2020/12/15 00:06:54;;;;;;;;;;;;;;;;;;5035375;28;936;-82
2020/12/15 00:09:20;;;;;;;;;;;;;;;;;;5035406;28;790;-82
2020/12/15 00:11:45;;;;;;;;;;;;;;;;;;5033542;28;1349;-81
2020/12/15 00:14:10;;;;;;;;;;;;;;;;;;5035432;28;1963;-82
2020/12/15 00:16:35;;;;;;;;;;;;;;;;;;5050693;28;1205;-81
2020/12/15 00:19:01;;;;;;;;;;;;;;;;;;5035272;28;905;-82
2020/12/15 00:21:26;;;;;;;;;;;;;;;;;;5035016;28;1363;-82
2020/12/15 00:23:53;;;;;;;;;;;;;;;;;;5035262;28;833;-82
2020/12/15 00:26:18;;;;;;;;;;;;;;;;;;5035217;28;877;-82
2020/12/15 00:28:44;;;;;;;;;;;;;;;;;;5035172;28;971;-82
2020/12/15 00:31:10;;;;;;;;;;;;;;;;;;5034939;28;1285;-82
2020/12/15 00:33:35;;;;;;;;;;;;;;;;;;5035249;28;1864;-82
2020/12/15 00:36:00;;;;;;;;;;;;;;;;;;5035190;28;873;-81
2020/12/15 00:38:25;;;;;;;;;;;;;;;;;;5033933;28;973;-82
2020/12/15 00:40:51;;;;;;;;;;;;;;;;;;5033929;28;953;-81
2020/12/15 00:43:16;;;;;;;;;;;;;;;;;;5035158;28;1372;-82
2020/12/15 00:45:41;;;;;;;;;;;;;;;;;;5034875;28;876;-81
2020/12/15 00:48:06;;;;;;;;;;;;;;;;;;5034891;28;979;-81
2020/12/15 00:50:32;;;;;;;;;;;;;;;;;;5034028;28;879;-82
2020/12/15 00:52:57;;;;;;;;;;;;;;;;;;5035592;28;1352;-81
2020/12/15 00:55:22;;;;;;;;;;;;;;;;;;5034001;28;1970;-81
2020/12/15 00:57:47;;;;;;;;;;;;;;;;;;5033858;28;861;-82
2020/12/15 01:00:13;;;;;;;;;;;;;;;;;;5033469;28;1126;-82
2020/12/15 01:02:39;;;;;;;;;;;;;;;;;;5033318;28;1400;-82
2020/12/15 01:05:04;;;;;;;;;;;;;;;;;;5034628;28;1039;-82
2020/12/15 01:07:29;;;;;;;;;;;;;;;;;;5033483;28;1142;-81
2020/12/15 01:09:55;;;;;;;;;;;;;;;;;;5033131;28;2249;-81
2020/12/15 01:12:20;;;;;;;;;;;;;;;;;;5034746;28;1332;-82
2020/12/15 01:14:45;;;;;;;;;;;;;;;;;;5034588;28;1898;-82
2020/12/15 01:17:10;;;;;;;;;;;;;;;;;;5034562;28;913;-81
2020/12/15 01:19:36;;;;;;;;;;;;;;;;;;5034309;28;830;-81
2020/12/15 01:22:01;;;;;;;;;;;;;;;;;;5034374;28;1280;-81
2020/12/15 01:24:27;;;;;;;;;;;;;;;;;;5036769;28;1481;-81
2020/12/15 01:26:52;;;;;;;;;;;;;;;;;;5037220;28;1243;-81
2020/12/15 01:29:17;;;;;;;;;;;;;;;;;;5038880;28;802;-81
2020/12/15 01:31:43;;;;;;;;;;;;;;;;;;5038260;28;1371;-82
2020/12/15 01:34:08;;;;;;;;;;;;;;;;;;5037061;28;1973;-81
2020/12/15 01:36:33;;;;;;;;;;;;;;;;;;5038171;28;625;-81
2020/12/15 01:38:59;;;;;;;;;;;;;;;;;;5038254;28;803;-81
2020/12/15 01:41:24;;;;;;;;;;;;;;;;;;5038092;28;1278;-82
2020/12/15 01:43:56;;;;;;;;;;;;;;;;;;5038333;28;890;-81
2020/12/15 01:46:22;;;;;;;;;;;;;;;;;;5038320;28;798;-81
2020/12/15 01:48:47;;;;;;;;;;;;;;;;;;5038187;28;860;-82
2020/12/15 01:51:13;;;;;;;;;;;;;;;;;;5037741;28;1355;-81
2020/12/15 01:53:38;;;;;;;;;;;;;;;;;;5037168;28;1899;-81
2020/12/15 01:56:03;;;;;;;;;;;;;;;;;;5037011;28;936;-81
2020/12/15 01:58:29;;;;;;;;;;;;;;;;;;5038118;28;869;-81
2020/12/15 02:00:54;;;;;;;;;;;;;;;;;;5036368;28;1301;-81
2020/12/15 02:03:19;;;;;;;;;;;;;;;;;;5036539;28;1367;-82
2020/12/15 02:05:45;;;;;;;;;;;;;;;;;;5037718;28;877;-81
2020/12/15 02:08:11;;;;;;;;;;;;;;;;;;5036691;28;873;-81
2020/12/15 02:10:36;;;;;;;;;;;;;;;;;;5037671;28;845;-82
2020/12/15 02:13:02;;;;;;;;;;;;;;;;;;5036337;28;1446;-82
2020/12/15 02:15:27;;;;;;;;;;;;;;;;;;5052878;28;1886;-82
2020/12/15 02:17:52;;;;;;;;;;;;;;;;;;5036406;28;1599;-82
2020/12/15 02:20:18;;;;;;;;;;;;;;;;;;5037249;28;830;-82
2020/12/15 02:22:43;;;;;;;;;;;;;;;;;;5037429;28;1305;-82
2020/12/15 02:25:11;;;;;;;;;;;;;;;;;;5037412;28;1069;-81
2020/12/15 02:27:36;;;;;;;;;;;;;;;;;;5037632;28;822;-82
2020/12/15 02:30:03;;;;;;;;;;;;;;;;;;5037164;28;826;-81
2020/12/15 02:32:32;;;;;;;;;;;;;;;;;;5037256;28;1340;-82
2020/12/15 02:34:57;;;;;;;;;;;;;;;;;;5036329;28;1947;-81
2020/12/15 02:37:23;;;;;;;;;;;;;;;;;;5035925;28;850;-81
2020/12/15 02:39:49;;;;;;;;;;;;;;;;;;5037025;28;751;-81
2020/12/15 02:42:14;;;;;;;;;;;;;;;;;;5035805;28;1364;-82
2020/12/15 02:44:39;;;;;;;;;;;;;;;;;;5052559;28;810;-81
2020/12/15 02:47:05;;;;;;;;;;;;;;;;;;5037271;28;908;-81
2020/12/15 02:49:30;;;;;;;;;;;;;;;;;;5036834;28;861;-82
2020/12/15 02:51:56;;;;;;;;;;;;;;;;;;5036098;28;1333;-81
2020/12/15 02:54:22;;;;;;;;;;;;;;;;;;5035579;28;1894;-82
2020/12/15 02:56:47;;;;;;;;;;;;;;;;;;5035776;28;1443;-81
2020/12/15 02:59:13;;;;;;;;;;;;;;;;;;5036946;28;958;-81
2020/12/15 03:01:39;;;;;;;;;;;;;;;;;;5035289;28;1310;-81
2020/12/15 03:04:05;;;;;;;;;;;;;;;;;;5036710;28;821;-81
2020/12/15 03:06:30;;;;;;;;;;;;;;;;;;5035985;28;921;-81
2020/12/15 03:08:55;;;;;;;;;;;;;;;;;;5052024;28;1505;-82
2020/12/15 03:11:21;;;;;;;;;;;;;;;;;;5036347;28;1383;-81
2020/12/15 03:13:46;;;;;;;;;;;;;;;;;;5035476;28;1902;-81
2020/12/15 03:16:11;;;;;;;;;;;;;;;;;;5036643;28;798;-81
2020/12/15 03:18:36;;;;;;;;;;;;;;;;;;5035293;28;1130;-81
2020/12/15 03:21:04;;;;;;;;;;;;;;;;;;5036301;28;885;-81
2020/12/15 03:23:30;;;;;;;;;;;;;;;;;;5036337;28;1337;-81
2020/12/15 03:25:55;;;;;;;;;;;;;;;;;;5035365;28;1237;-82
2020/12/15 03:28:21;;;;;;;;;;;;;;;;;;5035187;28;872;-81
2020/12/15 03:30:46;;;;;;;;;;;;;;;;;;5034904;28;874;-81
2020/12/15 03:33:12;;;;;;;;;;;;;;;;;;5036027;28;1384;-81
2020/12/15 03:35:37;;;;;;;;;;;;;;;;;;5034797;28;1902;-81
2020/12/15 03:38:02;;;;;;;;;;;;;;;;;;5036236;28;841;-82
2020/12/15 03:40:27;;;;;;;;;;;;;;;;;;5035926;28;950;-81
2020/12/15 03:42:53;;;;;;;;;;;;;;;;;;5036072;28;1301;-81
2020/12/15 03:45:18;;;;;;;;;;;;;;;;;;5034657;28;897;-81
2020/12/15 03:47:43;;;;;;;;;;;;;;;;;;5034814;28;872;-81
2020/12/15 03:50:11;;;;;;;;;;;;;;;;;;5034506;28;1293;-82
2020/12/15 03:52:37;;;;;;;;;;;;;;;;;;5034502;28;1396;-82
2020/12/15 03:55:03;;;;;;;;;;;;;;;;;;5035694;28;1955;-82
2020/12/15 03:57:29;;;;;;;;;;;;;;;;;;5035747;28;825;-82
2020/12/15 03:59:54;;;;;;;;;;;;;;;;;;5034217;28;994;-82
2020/12/15 04:02:19;;;;;;;;;;;;;;;;;;5035592;28;1335;-82
2020/12/15 04:04:44;;;;;;;;;;;;;;;;;;5034340;28;913;-82
2020/12/15 04:07:10;;;;;;;;;;;;;;;;;;5035771;28;904;-81
2020/12/15 04:09:35;;;;;;;;;;;;;;;;;;5034575;28;932;-82
2020/12/15 04:12:00;;;;;;;;;;;;;;;;;;5034100;28;1467;-82
2020/12/15 04:14:25;;;;;;;;;;;;;;;;;;5035297;28;1968;-81
2020/12/15 04:16:51;;;;;;;;;;;;;;;;;;5035340;28;956;-82
2020/12/15 04:19:16;;;;;;;;;;;;;;;;;;5035327;28;893;-81
2020/12/15 04:21:41;;;;;;;;;;;;;;;;;;5033786;28;1313;-82
2020/12/15 04:24:06;;;;;;;;;;;;;;;;;;5035261;28;810;-81
2020/12/15 04:26:31;;;;;;;;;;;;;;;;;;5034190;28;1395;-82
2020/12/15 04:28:57;;;;;;;;;;;;;;;;;;5035142;28;913;-82
2020/12/15 04:31:22;;;;;;;;;;;;;;;;;;5033939;28;1367;-82
2020/12/15 04:33:47;;;;;;;;;;;;;;;;;;5033733;28;1972;-81
2020/12/15 04:36:13;;;;;;;;;;;;;;;;;;5035322;28;869;-81
2020/12/15 04:38:38;;;;;;;;;;;;;;;;;;5035236;28;806;-82
2020/12/15 04:41:03;;;;;;;;;;;;;;;;;;5033642;28;830;-81
2020/12/15 04:43:30;;;;;;;;;;;;;;;;;;5033685;28;1482;-81
2020/12/15 04:45:58;;;;;;;;;;;;;;;;;;5033660;28;1184;-82
2020/12/15 04:48:24;;;;;;;;;;;;;;;;;;5035094;28;880;-81
2020/12/15 04:50:52;;;;;;;;;;;;;;;;;;5033420;28;1114;-82
2020/12/15 04:53:22;;;;;;;;;;;;;;;;;;5034764;28;1301;-82
2020/12/15 04:55:49;;;;;;;;;;;;;;;;;;5033738;28;633;-81
2020/12/15 04:58:18;;;;;;;;;;;;;;;;;;5033291;28;933;-82
2020/12/15 05:00:43;;;;;;;;;;;;;;;;;;5033168;28;1179;-82
2020/12/15 05:03:09;;;;;;;;;;;;;;;;;;5034648;28;1320;-81
2020/12/15 05:05:34;;;;;;;;;;;;;;;;;;5033393;28;842;-81
2020/12/15 05:08:01;;;;;;;;;;;;;;;;;;5034687;28;874;-81
2020/12/15 05:10:26;;;;;;;;;;;;;;;;;;5033217;28;1414;-82
2020/12/15 05:12:52;;;;;;;;;;;;;;;;;;5034555;28;1308;-81
2020/12/15 05:15:18;;;;;;;;;;;;;;;;;;5033240;28;1890;-81
2020/12/15 05:17:44;;;;;;;;;;;;;;;;;;5034508;28;913;-82
2020/12/15 05:20:10;;;;;;;;;;;;;;;;;;5034315;28;1063;-82
2020/12/15 05:22:38;;;;;;;;;;;;;;;;;;5034819;28;1291;-81
2020/12/15 05:25:03;;;;;;;;;;;;;;;;;;5034750;28;814;-81
2020/12/15 05:27:31;;;;;;;;;;;;;;;;;;5034541;28;834;-81
2020/12/15 05:30:05;;;;;;;;;;;;;;;;;;5034138;28;754;-82
2020/12/15 05:32:31;;;;;;;;;;;;;;;;;;5033456;28;1332;-81
2020/12/15 05:35:05;;;;;;;;;;;;;;;;;;5033561;28;1951;-81
2020/12/15 05:37:30;;;;;;;;;;;;;;;;;;5034492;28;845;-82
2020/12/15 05:39:59;;;;;;;;;;;;;;;;;;5034137;28;833;-81
2020/12/15 05:42:25;;;;;;;;;;;;;;;;;;5033177;28;1307;-82
2020/12/15 05:44:50;;;;;;;;;;;;;;;;;;5033415;28;881;-81
2020/12/15 05:47:21;;;;;;;;;;;;;;;;;;5033111;28;806;-81
2020/12/15 05:49:47;;;;;;;;;;;;;;;;;;5032792;28;846;-82
2020/12/15 05:52:12;;;;;;;;;;;;;;;;;;5034236;28;1300;-81
2020/12/15 05:54:37;;;;;;;;;;;;;;;;;;5033121;28;1902;-81
2020/12/15 05:57:03;;;;;;;;;;;;;;;;;;5034044;28;901;-81
2020/12/15 05:59:29;;;;;;;;;;;;;;;;;;5034082;28;952;-81
2020/12/15 06:02:02;;;;;;;;;;;;;;;;;;5032762;28;1328;-80
2020/12/15 06:04:27;;;;;;;;;;;;;;;;;;5032988;28;1192;-81
2020/12/15 06:06:53;;;;;;;;;;;;;;;;;;5034263;28;802;-81
2020/12/15 06:09:18;;;;;;;;;;;;;;;;;;5033145;28;1000;-81
2020/12/15 06:11:45;;;;;;;;;;;;;;;;;;5037621;28;1276;-81
2020/12/15 06:14:11;;;;;;;;;;;;;;;;;;5036497;28;1948;-81
2020/12/15 06:16:37;;;;;;;;;;;;;;;;;;5036739;28;1159;-81
2020/12/15 06:19:05;;;;;;;;;;;;;;;;;;5053097;28;1798;-81
2020/12/15 06:21:30;;;;;;;;;;;;;;;;;;5037393;28;1275;-81
2020/12/15 06:24:03;;;;;;;;;;;;;;;;;;5053070;28;1124;-81
2020/12/15 06:26:29;;;;;;;;;;;;;;;;;;5037551;28;845;-81
2020/12/15 06:29:02;;;;;;;;;;;;;;;;;;5037398;28;900;-81
2020/12/15 06:31:27;;;;;;;;;;;;;;;;;;5035849;28;1304;-81
2020/12/15 06:33:57;;;;;;;;;;;;;;;;;;5036050;28;1963;-81
2020/12/15 06:36:23;;;;;;;;;;;;;;;;;;5035990;28;1330;-81
2020/12/15 06:38:48;;;;;;;;;;;;;;;;;;5037172;28;913;-81
2020/12/15 06:41:18;;;;;;;;;;;;;;;;;;5036950;28;1352;-81
2020/12/15 06:43:44;;;;;;;;;;;;;;;;;;5037327;28;893;-81
2020/12/15 06:46:12;;;;;;;;;;;;;;;;;;5037105;28;826;-81
2020/12/15 06:48:37;;;;;;;;;;;;;;;;;;5037129;28;900;-81
2020/12/15 06:51:03;;;;;;;;;;;;;;;;;;5036908;28;873;-81
2020/12/15 06:53:28;;;;;;;;;;;;;;;;;;5052469;28;1973;-81
2020/12/15 06:56:00;;;;;;;;;;;;;;;;;;5036986;28;849;-81
2020/12/15 06:58:25;;;;;;;;;;;;;;;;;;5035517;28;1352;-81
2020/12/15 07:00:51;;;;;;;;;;;;;;;;;;5036835;28;936;-81
2020/12/15 07:03:19;;;;;;;;;;;;;;;;;;5035725;28;1486;-81
2020/12/15 07:05:45;;;;;;;;;;;;;;;;;;5035405;28;1312;-81
2020/12/15 07:08:11;;;;;;;;;;;;;;;;;;5036655;28;909;-81
2020/12/15 07:10:41;;;;;;;;;;;;;;;;;;5035246;28;1439;-81
2020/12/15 07:13:06;;;;;;;;;;;;;;;;;;5036626;28;1392;-81
2020/12/15 07:15:33;;;;;;;;;;;;;;;;;;5035331;28;1997;-81
2020/12/15 07:18:00;;;;;;;;;;;;;;;;;;5035321;28;1304;-80
2020/12/15 07:20:25;;;;;;;;;;;;;;;;;;5034630;28;1228;-81
2020/12/15 07:22:51;;;;;;;;;;;;;;;;;;5035198;28;1345;-81
2020/12/15 07:25:17;;;;;;;;;;;;;;;;;;5035199;28;1086;-81
2020/12/15 07:27:44;;;;;;;;;;;;;;;;;;5035303;28;1216;-82
2020/12/15 07:30:11;;;;;;;;;;;;;;;;;;5051744;28;1233;-81
2020/12/15 07:32:37;;;;;;;;;;;;;;;;;;5037075;28;1285;-81
2020/12/15 07:35:04;;;;;;;;;;;;;;;;;;5036574;28;1890;-81
2020/12/15 07:37:29;;;;;;;;;;;;;;;;;;5035140;28;842;-81
2020/12/15 07:40:00;;;;;;;;;;;;;;;;;;5035253;28;1162;-82
2020/12/15 07:42:25;;;;;;;;;;;;;;;;;;5036063;28;1380;-81
2020/12/15 07:44:55;;;;;;;;;;;;;;;;;;5036139;28;818;-81
2020/12/15 07:47:20;;;;;;;;;;;;;;;;;;5035889;28;806;-82
2020/12/15 07:49:50;;;;;;;;;;;;;;;;;;5035713;28;1219;-82
2020/12/15 07:52:26;;;;;;;;;;;;;;;;;;5051324;28;1594;-82
2020/12/15 07:54:58;;;;;;;;;;;;;;;;;;5034457;28;1890;-82
2020/12/15 07:57:24;;;;;;;;;;;;;;;;;;5035782;28;988;-82
2020/12/15 07:59:49;;;;;;;;;;;;;;;;;;5035446;28;938;-82
2020/12/15 08:02:17;;;;;;;;;;;;;;;;;;5036202;28;1314;-82
2020/12/15 08:04:43;;;;;;;;;;;;;;;;;;5034787;28;850;-82
2020/12/15 08:07:10;;;;;;;;;;;;;;;;;;5034325;28;912;-82
2020/12/15 08:09:36;;;;;;;;;;;;;;;;;;5035433;28;802;-82
2020/12/15 08:12:03;;;;;;;;;;;;;;;;;;5034107;28;1309;-82
2020/12/15 08:14:28;;;;;;;;;;;;;;;;;;5050472;28;1960;-82
2020/12/15 08:16:53;;;;;;;;;;;;;;;;;;5035336;28;885;-82
2020/12/15 08:19:23;;;;;;;;;;;;;;;;;;5033803;28;1223;-82
2020/12/15 08:21:52;;;;;;;;;;;;;;;;;;5034924;28;1361;-82
2020/12/15 08:24:18;;;;;;;;;;;;;;;;;;5035213;28;880;-80
2020/12/15 08:26:44;;;;;;;;;;;;;;;;;;5033648;28;822;-82
2020/12/15 08:29:11;;;;;;;;;;;;;;;;;;5033495;28;1147;-82
2020/12/15 08:31:40;;;;;;;;;;;;;;;;;;5034644;28;1411;-81
2020/12/15 08:34:10;;;;;;;;;;;;;;;;;;5033035;28;1930;-82
2020/12/15 08:36:46;;;;;;;;;;;;;;;;;;5034984;28;802;-82
2020/12/15 08:39:13;;;;;;;;;;;;;;;;;;5033636;28;834;-82
2020/12/15 08:41:48;;;;;;;;;;;;;;;;;;5033301;28;1275;-82
2020/12/15 08:44:17;;;;;;;;;;;;;;;;;;5033448;28;1314;-82
2020/12/15 08:46:43;;;;;;;;;;;;;;;;;;5033529;28;1312;-82
2020/12/15 08:49:12;;;;;;;;;;;;;;;;;;5033616;28;1236;-82
2020/12/15 08:51:40;;;;;;;;;;;;;;;;;;5033174;28;1361;-82
2020/12/15 08:54:06;;;;;;;;;;;;;;;;;;5033124;28;1965;-83
2020/12/15 08:56:33;;;;;;;;;;;;;;;;;;5033639;28;746;-82
2020/12/15 08:59:08;;;;;;;;;;;;;;;;;;5033291;28;1249;-82
2020/12/15 09:01:33;;;;;;;;;;;;;;;;;;5034479;28;1270;-82
2020/12/15 09:03:59;;;;;;;;;;;;;;;;;;5034572;28;861;-82
2020/12/15 09:06:34;;;;;;;;;;;;;;;;;;5033412;28;1138;-82
2020/12/15 09:09:00;;;;;;;;;;;;;;;;;;5034616;28;818;-82
2020/12/15 09:11:25;;;;;;;;;;;;;;;;;;5034390;28;1364;-82
2020/12/15 09:13:57;;;;;;;;;;;;;;;;;;5034377;28;1898;-82
2020/12/15 09:16:32;;;;;;;;;;;;;;;;;;5033187;28;920;-82
2020/12/15 09:19:09;;;;;;;;;;;;;;;;;;5034359;28;751;-81
2020/12/15 09:21:34;;;;;;;;;;;;;;;;;;5032970;28;1341;-82
2020/12/15 09:23:59;;;;;;;;;;;;;;;;;;5033501;28;1368;-82
2020/12/15 09:26:25;;;;;;;;;;;;;;;;;;5032949;28;1208;-82
2020/12/15 09:28:51;;;;;;;;;;;;;;;;;;5032923;28;1565;-82
2020/12/15 09:31:17;;;;;;;;;;;;;;;;;;5032660;28;1362;-81
2020/12/15 09:33:43;;;;;;;;;;;;;;;;;;5033957;28;1965;-82
2020/12/15 09:36:11;;;;;;;;;;;;;;;;;;5034410;28;901;-82
2020/12/15 09:38:37;;;;;;;;;;;;;;;;;;5033111;28;1245;-82
2020/12/15 09:41:02;;;;;;;;;;;;;;;;;;5032682;28;881;-82
2020/12/15 09:43:28;;;;;;;;;;;;;;;;;;5032988;28;1494;-81
2020/12/15 09:45:53;;;;;;;;;;;;;;;;;;5036770;28;1220;-84
2020/12/15 09:48:18;;;;;;;;;;;;;;;;;;5036685;28;1596;-81
2020/12/15 09:50:44;;;;;;;;;;;;;;;;;;5037972;28;834;-80
2020/12/15 09:53:10;;;;;;;;;;;;;;;;;;5038078;28;1379;-81
2020/12/15 09:55:35;;;;;;;;;;;;;;;;;;5036656;28;1948;-82
2020/12/15 09:58:01;;;;;;;;;;;;;;;;;;5036526;28;1211;-81
2020/12/15 10:00:26;;;;;;;;;;;;;;;;;;5036567;28;853;-82
2020/12/15 10:02:52;;;;;;;;;;;;;;;;;;5036302;28;1281;-82
2020/12/15 10:05:17;;;;;;;;;;;;;;;;;;5038112;28;946;-82
2020/12/15 10:07:43;;;;;;;;;;;;;;;;;;5037923;28;900;-82
2020/12/15 10:10:10;;;;;;;;;;;;;;;;;;5036066;28;1050;-83
2020/12/15 10:12:35;;;;;;;;;;;;;;;;;;5036287;28;1298;-82
2020/12/15 10:15:01;;;;;;;;;;;;;;;;;;5036393;28;1957;-83
2020/12/15 10:17:27;;;;;;;;;;;;;;;;;;5037563;28;873;-82
2020/12/15 10:19:53;;;;;;;;;;;;;;;;;;5037463;28;865;-82
2020/12/15 10:22:18;;;;;;;;;;;;;;;;;;5037556;28;1306;-83
2020/12/15 10:24:44;;;;;;;;;;;;;;;;;;5037643;28;861;-83
2020/12/15 10:27:12;;;;;;;;;;;;;;;;;;5037428;28;821;-82
2020/12/15 10:29:38;;;;;;;;;;;;;;;;;;5037110;28;994;-82
2020/12/15 10:32:03;;;;;;;;;;;;;;;;;;5037130;28;1300;-82
2020/12/15 10:34:29;;;;;;;;;;;;;;;;;;5037344;28;1952;-82
2020/12/15 10:36:56;;;;;;;;;;;;;;;;;;5036238;28;883;-82
2020/12/15 10:39:22;;;;;;;;;;;;;;;;;;5035751;28;1268;-82
2020/12/15 10:41:47;;;;;;;;;;;;;;;;;;5037012;28;1376;-82
2020/12/15 10:44:14;;;;;;;;;;;;;;;;;;5037121;28;786;-82
2020/12/15 10:46:41;;;;;;;;;;;;;;;;;;5035741;28;940;-82
2020/12/15 10:49:07;;;;;;;;;;;;;;;;;;5035908;28;872;-82
2020/12/15 10:51:32;;;;;;;;;;;;;;;;;;5036727;28;1375;-82
2020/12/15 10:53:58;;;;;;;;;;;;;;;;;;5036881;28;1897;-82
2020/12/15 10:56:23;;;;;;;;;;;;;;;;;;5036298;28;833;-82
2020/12/15 10:58:49;;;;;;;;;;;;;;;;;;5035705;28;1015;-81
2020/12/15 11:01:15;;;;;;;;;;;;;;;;;;5036551;28;1403;-82
2020/12/15 11:03:40;;;;;;;;;;;;;;;;;;5036881;28;853;-82
2020/12/15 11:06:06;;;;;;;;;;;;;;;;;;5037257;28;865;-82
2020/12/15 11:08:31;;;;;;;;;;;;;;;;;;5036718;28;849;-82
2020/12/15 11:10:57;;;;;;;;;;;;;;;;;;5036655;28;794;-82
2020/12/15 11:13:22;;;;;;;;;;;;;;;;;;5035652;28;1482;-82
2020/12/15 11:15:48;;;;;;;;;;;;;;;;;;5035178;28;1890;-82
2020/12/15 11:18:13;;;;;;;;;;;;;;;;;;5035463;28;1457;-82
2020/12/15 11:20:38;;;;;;;;;;;;;;;;;;5034846;28;1268;-83
2020/12/15 11:23:05;;;;;;;;;;;;;;;;;;5035193;28;1368;-83
2020/12/15 11:25:30;;;;;;;;;;;;;;;;;;5036299;28;864;-83
2020/12/15 11:27:56;;;;;;;;;;;;;;;;;;5035549;28;1195;-83
2020/12/15 11:30:21;;;;;;;;;;;;;;;;;;5036027;28;829;-83
2020/12/15 11:32:47;;;;;;;;;;;;;;;;;;5036475;28;1326;-83
2020/12/15 11:35:13;;;;;;;;;;;;;;;;;;5036194;28;1886;-83
2020/12/15 11:37:42;;;;;;;;;;;;;;;;;;5033078;28;1254;-88
2020/12/15 11:40:07;;;;;;;;;;;;;;;;;;5016793;28;892;-87
2020/12/15 11:42:33;;;;;;;;;;;;;;;;;;5015259;28;1371;-89
2020/12/15 11:44:58;;;;;;;;;;;;;;;;;;5015515;28;1188;-88
2020/12/15 11:47:23;;;;;;;;;;;;;;;;;;5015032;28;866;-88
2020/12/15 11:49:50;;;;;;;;;;;;;;;;;;5015067;28;1283;-93
2020/12/15 11:52:15;;;;;;;;;;;;;;;;;;5016251;28;1393;-83
2020/12/15 11:54:41;;;;;;;;;;;;;;;;;;5015761;28;1939;-84
2020/12/15 11:57:06;;;;;;;;;;;;;;;;;;5016063;28;868;-83
2020/12/15 11:59:32;;;;;;;;;;;;;;;;;;5015895;28;845;-84
2020/12/15 12:01:57;;;;;;;;;;;;;;;;;;5015624;28;1397;-84
2020/12/15 12:04:22;;;;;;;;;;;;;;;;;;5015890;28;870;-84
2020/12/15 12:06:47;;;;;;;;;;;;;;;;;;5015538;28;932;-84
2020/12/15 12:09:13;;;;;;;;;;;;;;;;;;5014028;28;1211;-83
2020/12/15 12:11:38;;;;;;;;;;;;;;;;;;5014347;28;1444;-85
2020/12/15 12:14:03;;;;;;;;;;;;;;;;;;5014695;28;1894;-83
2020/12/15 12:16:29;;;;;;;;;;;;;;;;;;5016030;28;778;-84
2020/12/15 12:18:54;;;;;;;;;;;;;;;;;;5015584;28;842;-83
2020/12/15 12:21:20;;;;;;;;;;;;;;;;;;5015541;28;1278;-83
2020/12/15 12:23:45;;;;;;;;;;;;;;;;;;5015814;28;932;-83
2020/12/15 12:26:14;;;;;;;;;;;;;;;;;;5015649;28;954;-84
2020/12/15 12:28:39;;;;;;;;;;;;;;;;;;5015484;28;787;-83
2020/12/15 12:31:04;;;;;;;;;;;;;;;;;;5014147;28;961;-84
2020/12/15 12:33:29;;;;;;;;;;;;;;;;;;5014320;28;1639;-84
2020/12/15 12:35:55;;;;;;;;;;;;;;;;;;5015393;28;1938;-84
2020/12/15 12:38:21;;;;;;;;;;;;;;;;;;5014383;28;1194;-84
2020/12/15 12:40:46;;;;;;;;;;;;;;;;;;5015055;28;829;-83
2020/12/15 12:43:12;;;;;;;;;;;;;;;;;;5013907;28;1274;-84
2020/12/15 12:45:40;;;;;;;;;;;;;;;;;;5013946;28;925;-84
2020/12/15 12:48:06;;;;;;;;;;;;;;;;;;5013728;28;1299;-84
2020/12/15 12:50:31;;;;;;;;;;;;;;;;;;5014715;28;865;-83
2020/12/15 12:52:57;;;;;;;;;;;;;;;;;;5013567;28;1334;-83
2020/12/15 12:55:22;;;;;;;;;;;;;;;;;;5014761;28;1938;-84
2020/12/15 12:57:49;;;;;;;;;;;;;;;;;;5013457;28;881;-84
2020/12/15 13:00:14;;;;;;;;;;;;;;;;;;5013083;28;1449;-83
2020/12/15 13:02:41;;;;;;;;;;;;;;;;;;5014716;28;1404;-83
2020/12/15 13:05:07;;;;;;;;;;;;;;;;;;5014787;28;876;-85
2020/12/15 13:07:32;;;;;;;;;;;;;;;;;;5014871;28;774;-83
2020/12/15 13:09:57;;;;;;;;;;;;;;;;;;5013382;28;842;-84
2020/12/15 13:12:22;;;;;;;;;;;;;;;;;;5014541;28;1371;-84
2020/12/15 13:14:48;;;;;;;;;;;;;;;;;;5014752;28;1878;-84
2020/12/15 13:17:13;;;;;;;;;;;;;;;;;;5013421;28;1342;-85
2020/12/15 13:19:38;;;;;;;;;;;;;;;;;;5018451;28;782;-84
2020/12/15 13:22:04;;;;;;;;;;;;;;;;;;5019841;28;1302;-84
2020/12/15 13:24:29;;;;;;;;;;;;;;;;;;5021138;28;956;-84
2020/12/15 13:26:54;;;;;;;;;;;;;;;;;;5019790;28;893;-84
2020/12/15 13:29:20;;;;;;;;;;;;;;;;;;5019901;28;894;-84
2020/12/15 13:31:45;;;;;;;;;;;;;;;;;;5019783;28;1331;-83
2020/12/15 13:34:11;;;;;;;;;;;;;;;;;;5019874;28;1944;-84
2020/12/15 13:36:36;;;;;;;;;;;;;;;;;;5021529;28;893;-83
2020/12/15 13:39:02;;;;;;;;;;;;;;;;;;5019858;28;870;-84
2020/12/15 13:41:27;;;;;;;;;;;;;;;;;;5019986;28;1279;-84
2020/12/15 13:43:52;;;;;;;;;;;;;;;;;;5021308;28;763;-85
2020/12/15 13:46:17;;;;;;;;;;;;;;;;;;5020030;28;1216;-84
2020/12/15 13:48:43;;;;;;;;;;;;;;;;;;5021496;28;786;-84
2020/12/15 13:51:09;;;;;;;;;;;;;;;;;;5020982;28;894;-85
2020/12/15 13:53:34;;;;;;;;;;;;;;;;;;5019746;28;1462;-84
2020/12/15 13:55:59;;;;;;;;;;;;;;;;;;5020946;28;1965;-83
2020/12/15 13:58:25;;;;;;;;;;;;;;;;;;5019770;28;1349;-84
2020/12/15 14:00:50;;;;;;;;;;;;;;;;;;5020757;28;814;-83
2020/12/15 14:03:16;;;;;;;;;;;;;;;;;;5019906;28;1428;-83
2020/12/15 14:05:41;;;;;;;;;;;;;;;;;;5020929;28;854;-84
2020/12/15 14:08:06;;;;;;;;;;;;;;;;;;5020907;28;870;-84
2020/12/15 14:10:32;;;;;;;;;;;;;;;;;;5020669;28;802;-83
2020/12/15 14:12:57;;;;;;;;;;;;;;;;;;5019775;28;1715;-83
2020/12/15 14:15:23;;;;;;;;;;;;;;;;;;5019593;28;1957;-82
2020/12/15 14:17:48;;;;;;;;;;;;;;;;;;5019828;28;984;-82
2020/12/15 14:20:13;;;;;;;;;;;;;;;;;;5020678;28;787;-83
2020/12/15 14:22:39;;;;;;;;;;;;;;;;;;5019726;28;1401;-82
2020/12/15 14:25:04;;;;;;;;;;;;;;;;;;5020694;28;933;-84
2020/12/15 14:27:30;;;;;;;;;;;;;;;;;;5019377;28;1308;-82
2020/12/15 14:29:56;;;;;;;;;;;;;;;;;;5019938;28;759;-83
2020/12/15 14:32:21;;;;;;;;;;;;;;;;;;5017036;28;1306;-83
2020/12/15 14:34:46;;;;;;;;;;;;;;;;;;5016332;28;1902;-83
2020/12/15 14:37:11;;;;;;;;;;;;;;;;;;5016616;28;806;-83
2020/12/15 14:39:37;;;;;;;;;;;;;;;;;;5017279;28;794;-82
2020/12/15 14:42:03;;;;;;;;;;;;;;;;;;5017303;28;1320;-83
2020/12/15 14:44:29;;;;;;;;;;;;;;;;;;5017633;28;885;-83
2020/12/15 14:46:54;;;;;;;;;;;;;;;;;;5016064;28;989;-83
2020/12/15 14:49:20;;;;;;;;;;;;;;;;;;5016096;28;1842;-83
2020/12/15 14:51:49;;;;;;;;;;;;;;;;;;5016173;28;1416;-82
2020/12/15 14:54:15;;;;;;;;;;;;;;;;;;5015930;28;1957;-83
2020/12/15 14:56:41;;;;;;;;;;;;;;;;;;5015725;28;1461;-83
2020/12/15 14:59:06;;;;;;;;;;;;;;;;;;5015892;28;1363;-83
2020/12/15 15:01:31;;;;;;;;;;;;;;;;;;5016116;28;1460;-83
2020/12/15 15:03:56;;;;;;;;;;;;;;;;;;5017386;28;985;-83
2020/12/15 15:06:22;;;;;;;;;;;;;;;;;;5017400;28;910;-83
2020/12/15 15:08:57;;;;;;;;;;;;;;;;;;5015944;28;1161;-83
2020/12/15 15:11:23;;;;;;;;;;;;;;;;;;5015110;28;1359;-83
2020/12/15 15:13:49;;;;;;;;;;;;;;;;;;5016215;28;1898;-83
2020/12/15 15:16:14;;;;;;;;;;;;;;;;;;5015285;28;1320;-83
2020/12/15 15:18:39;;;;;;;;;;;;;;;;;;5015137;28;1355;-83
2020/12/15 15:21:07;;;;;;;;;;;;;;;;;;5016166;28;873;-82
2020/12/15 15:23:32;;;;;;;;;;;;;;;;;;5014659;28;1487;-83
2020/12/15 15:25:57;;;;;;;;;;;;;;;;;;5015184;28;826;-82
2020/12/15 15:28:23;;;;;;;;;;;;;;;;;;5016134;28;826;-83
2020/12/15 15:30:48;;;;;;;;;;;;;;;;;;5014625;28;1337;-83
2020/12/15 15:33:13;;;;;;;;;;;;;;;;;;5014645;28;1432;-83
2020/12/15 15:35:39;;;;;;;;;;;;;;;;;;5014586;28;1886;-82
2020/12/15 15:38:04;;;;;;;;;;;;;;;;;;5016503;28;809;-83
2020/12/15 15:40:29;;;;;;;;;;;;;;;;;;5014696;28;924;-83
2020/12/15 15:42:54;;;;;;;;;;;;;;;;;;5014264;28;1377;-83
2020/12/15 15:45:20;;;;;;;;;;;;;;;;;;5015878;28;794;-83
2020/12/15 15:47:46;;;;;;;;;;;;;;;;;;5014414;28;1318;-82
2020/12/15 15:50:11;;;;;;;;;;;;;;;;;;5015517;28;817;-83
2020/12/15 15:55:42;;;;;;;;;;;;;;;;;;5015680;28;1894;-83
2020/12/15 16:01:29;;;;;;;;;;;;;;;;;;4947432;28;1387;-83
2020/12/15 16:07:19;;;;;;;;;;;;;;;;;;4971438;28;1509;-85
2020/12/15 16:10:17;;;;;;;;;;;;;;;;;;;;;
2020/12/15 16:13:33;;;;;;;;;;;;;;;;;;;;;
2020/12/15 16:39:04;;;;;;;;;;;;;;;;;;4757918;29;1694;-83
2020/12/15 16:41:58;;;;;;;;;;;;;;;;;;;;;
2020/12/15 16:48:01;;;;;;;;;;;;;;;;;;;;;
2020/12/15 16:53:25;;;;;;;;;;;;;;;;;;5003763;28;1357;-85
2020/12/15 17:05:32;;;;;;;;;;;;;;;;;;4900401;28;1404;-85
2020/12/15 17:07:57;;;;;;;;;;;;;;;;;;4956936;28;871;-85
2020/12/15 17:10:22;;;;;;;;;;;;;;;;;;5009443;28;1004;-85
2020/12/15 17:12:49;;;;;;;;;;;;;;;;;;5034099;28;1334;-85
2020/12/15 17:15:14;;;;;;;;;;;;;;;;;;5032841;28;1898;-85
2020/12/15 17:17:39;;;;;;;;;;;;;;;;;;5032792;28;1116;-85
2020/12/15 17:20:05;;;;;;;;;;;;;;;;;;5032491;28;1191;-85
2020/12/15 17:22:31;;;;;;;;;;;;;;;;;;5032541;28;1360;-85
2020/12/15 17:24:56;;;;;;;;;;;;;;;;;;5034071;28;869;-85
2020/12/15 17:27:22;;;;;;;;;;;;;;;;;;5033953;28;798;-84
2020/12/15 17:29:47;;;;;;;;;;;;;;;;;;5033798;28;865;-85
2020/12/15 17:32:12;;;;;;;;;;;;;;;;;;5032901;28;1302;-84
2020/12/15 17:34:37;;;;;;;;;;;;;;;;;;5033876;28;1949;-85
2020/12/15 17:37:03;;;;;;;;;;;;;;;;;;5032446;28;1283;-85
2020/12/15 17:39:29;;;;;;;;;;;;;;;;;;5034010;28;917;-85
2020/12/15 17:41:55;;;;;;;;;;;;;;;;;;5033967;28;1270;-84
2020/12/15 17:44:20;;;;;;;;;;;;;;;;;;5033808;28;841;-86
2020/12/15 17:46:45;;;;;;;;;;;;;;;;;;5032494;28;1378;-85
2020/12/15 17:49:11;;;;;;;;;;;;;;;;;;5032501;28;1227;-85
2020/12/15 17:51:37;;;;;;;;;;;;;;;;;;5033382;28;1318;-86
2020/12/15 17:54:02;;;;;;;;;;;;;;;;;;5032435;28;1890;-86
2020/12/15 17:56:27;;;;;;;;;;;;;;;;;;5033688;28;797;-85